Time;durP1;ratioP1;P1;durP2;ratioP2;P2;SDS_P1;SDS_P2;PMS_P1;PMS_P2;Temp;Humidity;BMP_temperature;BMP_pressure;BME280_temperature;BME280_humidity;BME280_pressure;Samples;Min_cycle;Max_cycle;Signal;HPM_P1;HPM_P2
2022/02/18 00:00:49;;;;;;;11.50;8.73;;;8.20;99.90;;;;;;5019264;28;20273;-76
2022/02/18 00:03:16;;;;;;;11.83;9.07;;;8.20;99.90;;;;;;5020153;28;20662;-76
2022/02/18 00:05:45;;;;;;;13.23;9.27;;;8.20;99.90;;;;;;5019520;28;20307;-76
2022/02/18 00:08:12;;;;;;;10.60;8.10;;;8.20;99.90;;;;;;5021802;28;20208;-76
2022/02/18 00:10:39;;;;;;;11.07;8.60;;;8.20;99.90;;;;;;5018380;28;20850;-76
2022/02/18 00:13:06;;;;;;;12.80;8.63;;;8.20;99.90;;;;;;5020997;28;20305;-76
2022/02/18 00:15:33;;;;;;;10.20;9.20;;;8.20;99.90;;;;;;5016469;28;20269;-76
2022/02/18 00:18:01;;;;;;;12.67;9.23;;;8.20;99.90;;;;;;5022595;28;20702;-77
2022/02/18 00:20:29;;;;;;;9.83;8.53;;;8.20;99.90;;;;;;5019501;28;20293;-76
2022/02/18 00:22:57;;;;;;;9.23;8.30;;;8.20;99.90;;;;;;5010308;28;20263;-76
2022/02/18 00:25:24;;;;;;;11.83;8.43;;;8.20;99.90;;;;;;5020842;28;20234;-76
2022/02/18 00:27:51;;;;;;;10.70;8.23;;;8.20;99.90;;;;;;5019048;28;20212;-76
2022/02/18 00:30:19;;;;;;;11.83;8.43;;;8.20;99.90;;;;;;5023535;28;20206;-77
2022/02/18 00:32:46;;;;;;;10.80;9.57;;;8.30;99.90;;;;;;5022315;28;20680;-76
2022/02/18 00:35:19;;;;;;;11.87;9.00;;;8.30;99.90;;;;;;5020769;28;20276;-76
2022/02/18 00:37:46;;;;;;;12.43;9.07;;;8.30;99.90;;;;;;5020651;28;20661;-76
2022/02/18 00:40:15;;;;;;;9.90;4.10;;;8.30;99.90;;;;;;5024291;28;20764;-76
2022/02/18 00:42:42;;;;;;;13.90;9.50;;;8.40;99.90;;;;;;5016588;28;20200;-76
2022/02/18 00:45:10;;;;;;;12.80;8.33;;;8.40;99.90;;;;;;5021264;28;20215;-77
2022/02/18 00:47:37;;;;;;;14.37;8.80;;;8.40;99.90;;;;;;5020767;28;20257;-76
2022/02/18 00:50:05;;;;;;;9.60;4.37;;;8.40;99.90;;;;;;5020514;28;20207;-76
2022/02/18 00:52:31;;;;;;;12.53;7.80;;;8.40;99.90;;;;;;5021791;28;20220;-76
2022/02/18 00:54:58;;;;;;;9.20;3.63;;;8.40;99.90;;;;;;5021191;28;20204;-76
2022/02/18 00:57:26;;;;;;;10.63;8.03;;;8.40;99.90;;;;;;5023971;28;20671;-76
2022/02/18 00:59:54;;;;;;;12.23;7.90;;;8.40;99.90;;;;;;5032963;28;20294;-77
2022/02/18 01:02:22;;;;;;;12.00;8.63;;;8.40;99.90;;;;;;5032564;28;20203;-77
2022/02/18 01:04:49;;;;;;;7.77;3.00;;;8.40;99.90;;;;;;5033934;28;20704;-76
2022/02/18 01:07:18;;;;;;;9.13;3.40;;;8.40;99.90;;;;;;5028334;28;20204;-76
2022/02/18 01:09:45;;;;;;;11.40;4.10;;;8.40;99.90;;;;;;5024465;28;20241;-77
2022/02/18 01:12:12;;;;;;;5.80;2.87;;;8.40;99.90;;;;;;5028375;28;20208;-76
2022/02/18 01:14:43;;;;;;;11.10;8.70;;;8.40;99.90;;;;;;5022603;28;20676;-76
2022/02/18 01:17:09;;;;;;;14.70;8.77;;;8.40;99.90;;;;;;5021499;28;20224;-77
2022/02/18 01:19:36;;;;;;;13.77;7.93;;;8.40;99.90;;;;;;5024278;28;20208;-76
2022/02/18 01:22:04;;;;;;;8.83;7.13;;;8.50;99.90;;;;;;5023795;28;20253;-76
2022/02/18 01:24:31;;;;;;;13.23;3.57;;;8.50;99.90;;;;;;5019044;28;20200;-76
2022/02/18 01:26:58;;;;;;;6.37;3.00;;;8.50;99.90;;;;;;5017919;28;20227;-76
2022/02/18 01:29:25;;;;;;;9.93;3.37;;;8.50;99.90;;;;;;5021296;28;20238;-76
2022/02/18 01:31:53;;;;;;;6.27;3.27;;;8.50;99.90;;;;;;5020612;28;20208;-76
2022/02/18 01:34:20;;;;;;;14.37;6.73;;;8.40;99.90;;;;;;5020766;28;20662;-76
2022/02/18 01:36:47;;;;;;;8.30;7.60;;;8.40;99.90;;;;;;5019307;28;20224;-76
2022/02/18 01:39:13;;;;;;;7.30;3.70;;;8.40;99.90;;;;;;5023594;28;20254;-76
2022/02/18 01:41:40;;;;;;;8.10;3.03;;;8.40;99.90;;;;;;5025339;28;20193;-76
2022/02/18 01:44:07;;;;;;;7.17;3.37;;;8.40;99.90;;;;;;5020752;28;20196;-76
2022/02/18 01:46:34;;;;;;;10.60;3.87;;;8.40;99.90;;;;;;5027972;28;20295;-76
2022/02/18 01:49:04;;;;;;;6.27;3.43;;;8.40;99.90;;;;;;5020147;28;20225;-76
2022/02/18 01:51:32;;;;;;;11.57;4.70;;;8.40;99.90;;;;;;5023124;28;20241;-76
2022/02/18 01:53:59;;;;;;;11.13;3.73;;;8.40;99.90;;;;;;5023463;28;20215;-76
2022/02/18 01:56:26;;;;;;;8.50;3.20;;;8.40;99.90;;;;;;5018616;28;20222;-76
2022/02/18 01:58:52;;;;;;;6.47;2.97;;;8.40;99.90;;;;;;5018015;28;20205;-76
2022/02/18 02:01:19;;;;;;;9.77;3.67;;;8.40;99.90;;;;;;5020830;28;20672;-76
2022/02/18 02:03:46;;;;;;;14.50;3.77;;;8.40;99.90;;;;;;5020001;28;20196;-76
2022/02/18 02:06:16;;;;;;;9.83;3.70;;;8.40;99.90;;;;;;5021175;28;20222;-76
2022/02/18 02:08:43;;;;;;;6.57;2.80;;;8.40;99.90;;;;;;5019585;28;20212;-76
2022/02/18 02:11:10;;;;;;;6.40;3.20;;;8.30;99.90;;;;;;5023467;28;20207;-76
2022/02/18 02:13:39;;;;;;;8.23;3.27;;;8.30;99.90;;;;;;5019662;28;20223;-76
2022/02/18 02:16:13;;;;;;;11.07;3.70;;;8.30;99.90;;;;;;5017981;28;20306;-77
2022/02/18 02:18:42;;;;;;;8.03;3.20;;;8.30;99.90;;;;;;5020458;28;20198;-76
2022/02/18 02:21:11;;;;;;;14.17;3.70;;;8.30;99.90;;;;;;5020458;28;20208;-76
2022/02/18 02:23:42;;;;;;;9.47;3.70;;;8.30;99.90;;;;;;5019763;28;20282;-76
2022/02/18 02:26:11;;;;;;;7.77;3.20;;;8.40;99.90;;;;;;5018948;28;20267;-76
2022/02/18 02:28:38;;;;;;;9.83;4.33;;;8.40;99.90;;;;;;5016754;28;20303;-76
2022/02/18 02:31:06;;;;;;;8.63;3.00;;;8.30;99.90;;;;;;5022421;28;20203;-76
2022/02/18 02:33:36;;;;;;;8.07;3.43;;;8.40;99.90;;;;;;5017285;28;20227;-76
2022/02/18 02:36:04;;;;;;;6.30;3.40;;;8.40;99.90;;;;;;5015088;28;20716;-76
2022/02/18 02:38:31;;;;;;;9.33;3.17;;;8.40;99.90;;;;;;5020275;28;20188;-76
2022/02/18 02:40:59;;;;;;;11.80;3.50;;;8.40;99.90;;;;;;5019064;28;21006;-76
2022/02/18 02:43:27;;;;;;;10.17;3.43;;;8.40;99.90;;;;;;5022268;28;20592;-76
2022/02/18 02:45:54;;;;;;;12.63;4.03;;;8.40;99.90;;;;;;5019688;28;20234;-76
2022/02/18 02:48:21;;;;;;;9.63;2.97;;;8.40;99.90;;;;;;5021420;28;20209;-76
2022/02/18 02:50:58;;;;;;;8.27;3.43;;;8.40;99.90;;;;;;5015147;28;20210;-76
2022/02/18 02:53:26;;;;;;;7.30;3.03;;;8.30;99.90;;;;;;5020253;28;20212;-76
2022/02/18 02:55:53;;;;;;;8.43;3.10;;;8.30;99.90;;;;;;5019477;28;20796;-76
2022/02/18 02:58:22;;;;;;;8.90;3.57;;;8.30;99.90;;;;;;5014107;28;20684;-76
2022/02/18 03:00:51;;;;;;;8.87;3.20;;;8.20;99.90;;;;;;5016211;28;20197;-76
2022/02/18 03:03:33;;;;;;;7.97;3.23;;;8.20;99.90;;;;;;5011709;28;20717;-76
2022/02/18 03:06:02;;;;;;;6.73;3.23;;;8.10;99.90;;;;;;5017851;28;20266;-76
2022/02/18 03:08:31;;;;;;;7.03;3.40;;;8.10;99.90;;;;;;5018596;28;20243;-76
2022/02/18 03:11:17;;;;;;;4.83;3.13;;;8.10;99.90;;;;;;5019015;28;20225;-76
2022/02/18 03:14:19;;;;;;;5.60;2.87;;;8.10;99.90;;;;;;5020708;28;20232;-76
2022/02/18 03:16:57;;;;;;;7.47;3.10;;;8.10;99.90;;;;;;5014400;28;20223;-76
2022/02/18 03:19:25;;;;;;;9.63;4.20;;;8.20;99.90;;;;;;5020586;28;20270;-76
2022/02/18 03:21:54;;;;;;;11.57;3.43;;;8.20;99.90;;;;;;5018302;28;20203;-75
2022/02/18 03:24:22;;;;;;;13.33;3.60;;;8.20;99.90;;;;;;5019487;28;20203;-76
2022/02/18 03:26:51;;;;;;;11.10;3.53;;;8.30;99.90;;;;;;5021423;28;20255;-76
2022/02/18 03:29:20;;;;;;;8.37;3.20;;;8.20;99.90;;;;;;5018079;28;20242;-76
2022/02/18 03:32:10;;;;;;;9.13;3.40;;;8.30;99.90;;;;;;5015137;28;20199;-76
2022/02/18 03:34:37;;;;;;;9.33;2.90;;;8.30;99.90;;;;;;5020423;28;20246;-77
2022/02/18 03:37:07;;;;;;;6.70;3.17;;;8.30;99.90;;;;;;5027035;28;20226;-77
2022/02/18 03:39:34;;;;;;;12.20;3.93;;;8.30;99.90;;;;;;5029702;28;20218;-78
2022/02/18 03:42:02;;;;;;;7.53;3.00;;;8.30;99.90;;;;;;5017800;28;20405;-78
2022/02/18 03:44:32;;;;;;;9.70;3.00;;;8.30;99.90;;;;;;5024152;28;20203;-77
2022/02/18 03:47:05;;;;;;;7.93;3.13;;;8.30;99.90;;;;;;5020531;28;20224;-77
2022/02/18 03:49:32;;;;;;;9.63;2.80;;;8.30;99.90;;;;;;5017598;28;20211;-78
2022/02/18 03:52:00;;;;;;;4.73;2.90;;;8.20;99.90;;;;;;5035353;28;20196;-79
2022/02/18 03:54:27;;;;;;;5.27;3.10;;;8.20;99.90;;;;;;5011635;28;20257;-77
2022/02/18 03:56:56;;;;;;;11.33;3.60;;;8.20;99.90;;;;;;5030103;28;20245;-78
2022/02/18 03:59:25;;;;;;;10.80;3.83;;;8.20;99.90;;;;;;5025635;28;20200;-78
2022/02/18 04:01:55;;;;;;;8.60;3.30;;;8.20;99.90;;;;;;5026254;28;20232;-78
2022/02/18 04:04:23;;;;;;;6.70;3.53;;;8.10;99.90;;;;;;5029661;28;20201;-78
2022/02/18 04:06:58;;;;;;;8.20;3.70;;;8.10;99.90;;;;;;5030847;28;20205;-77
2022/02/18 04:09:37;;;;;;;11.03;3.77;;;8.10;99.90;;;;;;5030930;28;20204;-76
2022/02/18 04:12:07;;;;;;;8.73;3.23;;;8.10;99.90;;;;;;5030129;28;20207;-78
2022/02/18 04:14:37;;;;;;;4.50;2.60;;;8.10;99.90;;;;;;5023223;28;20276;-77
2022/02/18 04:17:09;;;;;;;7.60;3.07;;;8.10;99.90;;;;;;5030377;28;20241;-78
2022/02/18 04:19:41;;;;;;;7.37;3.80;;;8.10;99.90;;;;;;5029566;28;20296;-77
2022/02/18 04:22:12;;;;;;;8.90;3.07;;;8.10;99.90;;;;;;5034937;28;20645;-78
2022/02/18 04:24:42;;;;;;;10.40;3.60;;;8.10;99.90;;;;;;5028701;28;20192;-78
2022/02/18 04:27:10;;;;;;;9.10;3.77;;;8.10;99.90;;;;;;5025216;28;20216;-76
2022/02/18 04:29:39;;;;;;;10.67;3.73;;;8.10;99.90;;;;;;5027799;28;20639;-77
2022/02/18 04:32:06;;;;;;;12.47;4.33;;;8.10;99.90;;;;;;5028394;28;20197;-79
2022/02/18 04:34:34;;;;;;;13.20;4.57;;;8.10;99.90;;;;;;5024382;28;20593;-78
2022/02/18 04:37:01;;;;;;;11.13;3.90;;;8.10;99.90;;;;;;5023736;28;20217;-77
2022/02/18 04:39:28;;;;;;;7.30;3.37;;;8.10;99.90;;;;;;5010641;28;20202;-76
2022/02/18 04:41:55;;;;;;;9.77;4.20;;;8.10;99.90;;;;;;5013830;28;20239;-76
2022/02/18 04:44:22;;;;;;;7.53;3.77;;;8.10;99.90;;;;;;5014565;28;20625;-75
2022/02/18 04:46:49;;;;;;;7.87;4.03;;;8.10;99.90;;;;;;5014541;28;20279;-75
2022/02/18 04:49:16;;;;;;;10.47;4.53;;;8.20;99.90;;;;;;5012905;28;20612;-75
2022/02/18 04:51:44;;;;;;;8.10;3.53;;;8.10;99.90;;;;;;5015328;28;20279;-77
2022/02/18 04:54:11;;;;;;;6.73;3.57;;;8.20;99.90;;;;;;5023165;28;20219;-76
2022/02/18 04:56:37;;;;;;;8.03;3.57;;;8.20;99.90;;;;;;5025672;28;20234;-76
2022/02/18 04:59:04;;;;;;;9.63;3.50;;;8.10;99.90;;;;;;5013661;28;20266;-76
2022/02/18 05:01:31;;;;;;;7.50;3.97;;;8.20;99.90;;;;;;5017277;28;20659;-76
2022/02/18 05:03:58;;;;;;;7.10;3.53;;;8.20;99.90;;;;;;5024886;28;20193;-76
2022/02/18 05:06:24;;;;;;;7.23;3.43;;;8.20;99.90;;;;;;5024814;28;20262;-76
2022/02/18 05:08:53;;;;;;;9.03;3.73;;;8.20;99.90;;;;;;5025318;28;20254;-76
2022/02/18 05:11:20;;;;;;;8.60;3.60;;;8.30;99.90;;;;;;5024718;28;20677;-76
2022/02/18 05:13:47;;;;;;;5.40;3.20;;;8.30;99.90;;;;;;5025613;28;20216;-75
2022/02/18 05:16:14;;;;;;;5.03;2.90;;;8.40;99.90;;;;;;5022084;28;20244;-76
2022/02/18 05:18:40;;;;;;;5.90;3.03;;;8.40;99.90;;;;;;5025331;28;20250;-76
2022/02/18 05:21:07;;;;;;;4.50;2.80;;;8.40;99.90;;;;;;5023287;28;20211;-76
2022/02/18 05:23:34;;;;;;;6.87;2.67;;;8.50;99.90;;;;;;5021700;28;20276;-76
2022/02/18 05:26:02;;;;;;;4.77;2.67;;;8.50;99.90;;;;;;5028927;28;20234;-76
2022/02/18 05:28:29;;;;;;;7.20;3.17;;;8.50;99.90;;;;;;5016535;28;20205;-76
2022/02/18 05:30:56;;;;;;;5.13;2.80;;;8.60;99.90;;;;;;5025570;28;20260;-77
2022/02/18 05:33:22;;;;;;;5.90;3.17;;;8.60;99.90;;;;;;5014804;28;20208;-77
2022/02/18 05:35:50;;;;;;;3.60;2.43;;;8.60;99.90;;;;;;5016755;28;20216;-76
2022/02/18 05:38:16;;;;;;;6.03;2.87;;;8.60;99.90;;;;;;5029677;28;20199;-76
2022/02/18 05:40:43;;;;;;;5.90;2.70;;;8.70;99.90;;;;;;5018949;28;20216;-76
2022/02/18 05:43:11;;;;;;;4.80;2.47;;;8.70;99.90;;;;;;5022475;28;20254;-76
2022/02/18 05:45:38;;;;;;;5.83;2.97;;;8.60;99.90;;;;;;5025008;28;20266;-76
2022/02/18 05:48:05;;;;;;;4.27;2.77;;;8.60;99.90;;;;;;5022063;28;20247;-76
2022/02/18 05:50:32;;;;;;;5.07;3.00;;;8.60;99.90;;;;;;5024287;28;20219;-76
2022/02/18 05:52:59;;;;;;;6.40;2.43;;;8.50;99.90;;;;;;5023701;28;20219;-76
2022/02/18 05:55:25;;;;;;;4.47;2.63;;;8.50;99.90;;;;;;5018667;28;20251;-76
2022/02/18 05:57:52;;;;;;;4.57;2.57;;;8.50;99.90;;;;;;5023142;28;20203;-76
2022/02/18 06:00:20;;;;;;;6.13;3.10;;;8.50;99.90;;;;;;5022802;28;20558;-76
2022/02/18 06:02:47;;;;;;;6.53;2.80;;;8.50;99.90;;;;;;5012923;28;20208;-77
2022/02/18 06:05:16;;;;;;;4.90;2.70;;;8.50;99.90;;;;;;5024554;28;20624;-80
2022/02/18 06:07:44;;;;;;;7.23;3.30;;;8.50;99.90;;;;;;5020048;28;20215;-79
2022/02/18 06:10:11;;;;;;;6.20;3.07;;;8.40;99.90;;;;;;5024224;28;20196;-79
2022/02/18 06:12:38;;;;;;;5.90;3.23;;;8.50;99.90;;;;;;5018748;28;20192;-78
2022/02/18 06:15:05;;;;;;;6.83;3.40;;;8.50;99.90;;;;;;5013867;28;20266;-77
2022/02/18 06:17:34;;;;;;;7.27;3.17;;;8.50;99.90;;;;;;5013888;28;20191;-77
2022/02/18 06:20:00;;;;;;;6.33;3.37;;;8.50;99.90;;;;;;5013758;28;20212;-77
2022/02/18 06:22:30;;;;;;;5.03;2.60;;;8.50;99.90;;;;;;5022495;28;20189;-78
2022/02/18 06:24:59;;;;;;;8.60;3.20;;;8.50;99.90;;;;;;5021403;28;20248;-80
2022/02/18 06:27:26;;;;;;;5.60;3.30;;;8.50;99.90;;;;;;5020058;28;20332;-79
2022/02/18 06:29:55;;;;;;;7.10;3.00;;;8.50;99.90;;;;;;5026300;28;20655;-78
2022/02/18 06:32:22;;;;;;;5.50;3.10;;;8.40;99.90;;;;;;5030525;28;20200;-79
2022/02/18 06:34:52;;;;;;;5.07;3.20;;;8.40;99.90;;;;;;5024352;28;20234;-80
2022/02/18 06:37:18;;;;;;;5.17;3.00;;;8.40;99.90;;;;;;5030935;28;20258;-77
2022/02/18 06:39:45;;;;;;;7.37;3.40;;;8.40;99.90;;;;;;5024024;28;20669;-77
2022/02/18 06:42:12;;;;;;;5.83;3.30;;;8.50;99.90;;;;;;5010742;28;20430;-76
2022/02/18 06:44:39;;;;;;;4.80;3.20;;;8.50;99.90;;;;;;5011041;28;20271;-76
2022/02/18 06:47:06;;;;;;;5.67;2.90;;;8.50;99.90;;;;;;5010846;28;20220;-77
2022/02/18 06:49:33;;;;;;;9.50;3.77;;;8.50;99.90;;;;;;5012566;28;20200;-77
2022/02/18 06:52:01;;;;;;;8.83;3.97;;;8.50;99.90;;;;;;5019735;28;20195;-77
2022/02/18 06:54:29;;;;;;;5.77;3.13;;;8.60;99.90;;;;;;5015178;28;20204;-76
2022/02/18 06:57:00;;;;;;;9.70;3.53;;;8.60;99.90;;;;;;5022037;28;20235;-76
2022/02/18 06:59:28;;;;;;;5.87;2.80;;;8.70;99.90;;;;;;5022015;28;20191;-76
2022/02/18 07:01:55;;;;;;;6.23;3.20;;;8.70;99.90;;;;;;5016531;28;20196;-76
2022/02/18 07:04:21;;;;;;;11.73;3.70;;;8.80;99.90;;;;;;5013019;28;20197;-75
2022/02/18 07:06:48;;;;;;;5.13;2.97;;;8.90;99.90;;;;;;4997304;28;20228;-76
2022/02/18 07:09:17;;;;;;;4.27;2.80;;;8.90;99.90;;;;;;5020240;28;20199;-76
2022/02/18 07:11:44;;;;;;;7.97;3.40;;;9.00;99.90;;;;;;5021875;28;20196;-76
2022/02/18 07:14:12;;;;;;;5.23;2.93;;;9.00;99.90;;;;;;5019427;28;20200;-76
2022/02/18 07:16:41;;;;;;;6.87;2.93;;;9.10;99.90;;;;;;5015566;28;20314;-76
2022/02/18 07:19:09;;;;;;;4.73;2.77;;;9.10;99.90;;;;;;5015915;28;20577;-76
2022/02/18 07:21:36;;;;;;;5.30;2.80;;;9.10;99.90;;;;;;5022206;28;20250;-76
2022/02/18 07:24:05;;;;;;;8.57;7.77;;;9.20;99.90;;;;;;5017403;28;20275;-76
2022/02/18 07:26:33;;;;;;;8.53;7.63;;;9.20;99.90;;;;;;5017512;28;20224;-76
2022/02/18 07:29:00;;;;;;;7.33;5.77;;;9.30;99.90;;;;;;5017905;28;20199;-76
2022/02/18 07:31:29;;;;;;;9.03;6.03;;;9.40;99.90;;;;;;5014895;28;20188;-76
2022/02/18 07:33:56;;;;;;;6.40;5.03;;;9.40;99.90;;;;;;5024482;28;20208;-76
2022/02/18 07:36:23;;;;;;;8.73;6.70;;;9.50;99.90;;;;;;5018186;28;20290;-77
2022/02/18 07:38:50;;;;;;;8.73;7.40;;;9.50;99.90;;;;;;5018678;28;20200;-77
2022/02/18 07:41:17;;;;;;;8.63;7.73;;;9.60;99.90;;;;;;5019172;28;20673;-76
2022/02/18 07:43:45;;;;;;;9.13;8.33;;;9.60;99.90;;;;;;5024367;28;20227;-76
2022/02/18 07:46:12;;;;;;;8.80;8.00;;;9.70;99.90;;;;;;5018515;28;20224;-76
2022/02/18 07:48:39;;;;;;;8.53;7.93;;;9.70;99.90;;;;;;5029340;28;20270;-76
2022/02/18 07:51:07;;;;;;;8.20;7.60;;;9.70;99.90;;;;;;5017775;28;20208;-76
2022/02/18 07:53:34;;;;;;;8.67;7.97;;;9.80;99.90;;;;;;5028632;28;20742;-76
2022/02/18 07:56:01;;;;;;;9.03;8.33;;;9.90;99.90;;;;;;5019234;28;20247;-76
2022/02/18 07:58:28;;;;;;;9.60;8.90;;;9.90;99.90;;;;;;5026381;28;20673;-75
2022/02/18 08:00:56;;;;;;;7.07;3.33;;;10.00;99.90;;;;;;5024916;28;20802;-76
2022/02/18 08:03:25;;;;;;;5.23;2.93;;;10.10;99.90;;;;;;5025858;28;20198;-75
2022/02/18 08:05:52;;;;;;;4.57;3.50;;;10.10;99.90;;;;;;5025440;28;20223;-75
2022/02/18 08:08:24;;;;;;;8.47;7.87;;;10.20;99.90;;;;;;5026160;28;20200;-75
2022/02/18 08:10:51;;;;;;;9.27;8.57;;;10.30;99.90;;;;;;5024379;28;20227;-76
2022/02/18 08:13:18;;;;;;;10.00;9.20;;;10.40;99.90;;;;;;5026025;28;20208;-76
2022/02/18 08:15:45;;;;;;;10.10;9.20;;;10.50;99.90;;;;;;5019784;28;20651;-76
2022/02/18 08:18:17;;;;;;;10.10;9.20;;;10.60;99.90;;;;;;5024239;28;20830;-75
2022/02/18 08:20:44;;;;;;;9.43;8.67;;;10.60;99.90;;;;;;5021228;28;20270;-76
2022/02/18 08:23:11;;;;;;;8.63;8.03;;;10.80;99.90;;;;;;5027075;28;20198;-78
2022/02/18 08:25:38;;;;;;;3.27;2.30;;;11.00;99.90;;;;;;5029433;28;20251;-78
2022/02/18 08:28:05;;;;;;;2.40;2.20;;;11.20;99.90;;;;;;5036023;28;20220;-78
2022/02/18 08:30:33;;;;;;;8.87;8.27;;;11.40;99.90;;;;;;5032702;28;20174;-78
2022/02/18 08:33:00;;;;;;;8.80;8.20;;;11.60;99.90;;;;;;5034268;28;20268;-78
2022/02/18 08:35:28;;;;;;;8.80;8.20;;;11.80;99.90;;;;;;5034310;28;20229;-79
2022/02/18 08:37:55;;;;;;;8.57;8.07;;;12.00;99.90;;;;;;5034965;28;20203;-78
2022/02/18 08:40:22;;;;;;;8.50;8.00;;;12.10;99.90;;;;;;5034190;28;20222;-78
2022/02/18 08:42:50;;;;;;;8.13;7.63;;;12.20;99.90;;;;;;5023537;28;20261;-77
2022/02/18 08:45:17;;;;;;;7.70;7.30;;;12.30;99.90;;;;;;5017527;28;20218;-76
2022/02/18 08:47:45;;;;;;;7.90;7.50;;;12.40;99.90;;;;;;5013571;28;20201;-76
2022/02/18 08:50:12;;;;;;;7.90;7.40;;;12.40;99.90;;;;;;5021634;28;20266;-78
2022/02/18 08:52:42;;;;;;;8.30;7.70;;;12.50;99.90;;;;;;5025825;28;20252;-76
2022/02/18 08:55:11;;;;;;;8.00;7.60;;;12.60;99.90;;;;;;5027574;28;20302;-76
2022/02/18 08:57:38;;;;;;;8.17;7.67;;;12.70;99.90;;;;;;5020801;28;20294;-76
2022/02/18 09:00:08;;;;;;;8.87;8.27;;;12.60;99.90;;;;;;5019431;28;20270;-76
2022/02/18 09:02:36;;;;;;;8.60;8.10;;;12.70;99.90;;;;;;5023403;28;20573;-76
2022/02/18 09:05:03;;;;;;;2.70;2.60;;;12.70;99.90;;;;;;5026357;28;20203;-76
2022/02/18 09:07:31;;;;;;;2.70;2.60;;;12.70;99.90;;;;;;5022022;28;20218;-79
2022/02/18 09:09:59;;;;;;;3.03;2.70;;;12.80;99.90;;;;;;5022597;28;20204;-76
2022/02/18 09:12:27;;;;;;;8.00;7.40;;;12.80;99.90;;;;;;5025527;28;20602;-76
2022/02/18 09:14:54;;;;;;;8.27;7.70;;;12.90;99.90;;;;;;5018733;28;20577;-76
2022/02/18 09:17:26;;;;;;;6.37;6.00;;;12.90;99.90;;;;;;5023174;28;20196;-76
2022/02/18 09:19:55;;;;;;;5.47;5.10;;;12.90;99.90;;;;;;5019882;28;20696;-76
2022/02/18 09:22:22;;;;;;;6.80;6.40;;;12.90;99.90;;;;;;5027089;28;20200;-76
2022/02/18 09:24:48;;;;;;;6.23;5.80;;;12.90;99.90;;;;;;5023714;28;20220;-76
2022/02/18 09:27:16;;;;;;;2.70;2.50;;;12.90;99.90;;;;;;5015753;28;20216;-78
2022/02/18 09:29:43;;;;;;;8.17;7.67;;;12.90;99.90;;;;;;5023801;28;20277;-76
2022/02/18 09:32:11;;;;;;;8.80;8.27;;;13.00;99.90;;;;;;5016792;28;20258;-76
2022/02/18 09:34:38;;;;;;;8.40;7.80;;;13.00;99.90;;;;;;5026287;28;20223;-76
2022/02/18 09:37:05;;;;;;;8.47;7.97;;;13.10;99.90;;;;;;5013352;28;20217;-76
2022/02/18 09:39:32;;;;;;;9.17;8.67;;;13.20;99.90;;;;;;5013528;28;20201;-76
2022/02/18 09:41:59;;;;;;;5.60;5.20;;;13.40;99.90;;;;;;5012004;28;20208;-76
2022/02/18 09:44:29;;;;;;;2.43;1.90;;;13.50;99.90;;;;;;5016648;28;20192;-76
2022/02/18 09:46:59;;;;;;;5.00;4.80;;;13.60;99.90;;;;;;5015939;28;20220;-76
2022/02/18 09:49:26;;;;;;;5.57;2.50;;;13.80;99.90;;;;;;5025163;28;20196;-76
2022/02/18 09:51:54;;;;;;;2.97;2.67;;;13.90;99.90;;;;;;5022073;28;20197;-76
2022/02/18 09:54:21;;;;;;;3.10;2.87;;;14.00;99.90;;;;;;5027009;28;20235;-78
2022/02/18 09:56:49;;;;;;;4.13;3.90;;;14.20;99.90;;;;;;5028904;28;20250;-79
2022/02/18 09:59:16;;;;;;;6.50;5.97;;;14.20;99.90;;;;;;5025711;28;20193;-78
2022/02/18 10:01:47;;;;;;;8.00;7.40;;;14.30;99.90;;;;;;5025764;28;20259;-77
2022/02/18 10:04:14;;;;;;;8.00;7.47;;;14.20;99.90;;;;;;5027201;28;20189;-78
2022/02/18 10:06:42;;;;;;;8.43;7.83;;;14.20;99.90;;;;;;5020441;28;20689;-78
2022/02/18 10:09:09;;;;;;;8.67;8.17;;;14.10;99.90;;;;;;5024750;28;20210;-78
2022/02/18 10:11:51;;;;;;;9.07;8.40;;;14.10;99.90;;;;;;5024996;28;20229;-78
2022/02/18 10:14:20;;;;;;;8.97;8.47;;;14.20;99.90;;;;;;5030975;28;20216;-77
2022/02/18 10:16:49;;;;;;;8.20;7.70;;;14.30;99.90;;;;;;5025437;28;20225;-78
2022/02/18 10:19:16;;;;;;;8.83;8.33;;;14.60;99.90;;;;;;5027691;28;20192;-79
2022/02/18 10:21:44;;;;;;;9.03;8.43;;;15.00;99.90;;;;;;5028245;28;20219;-78
2022/02/18 10:24:13;;;;;;;4.30;3.93;;;15.40;99.90;;;;;;5021063;28;20255;-78
2022/02/18 10:26:42;;;;;;;4.73;4.20;;;15.60;99.90;;;;;;5025888;28;20238;-77
2022/02/18 10:29:17;;;;;;;3.77;2.30;;;15.80;99.90;;;;;;5018107;28;20210;-76
2022/02/18 10:31:44;;;;;;;6.43;4.93;;;16.00;99.90;;;;;;5022634;28;20210;-77
2022/02/18 10:34:13;;;;;;;3.47;3.13;;;16.10;99.90;;;;;;5016928;28;20211;-76
2022/02/18 10:36:41;;;;;;;7.77;7.27;;;16.10;99.90;;;;;;5022820;28;20223;-76
2022/02/18 10:39:26;;;;;;;7.03;6.43;;;16.30;99.90;;;;;;5018533;28;20204;-76
2022/02/18 10:41:57;;;;;;;10.97;10.00;;;16.40;99.90;;;;;;5013651;28;20382;-76
2022/02/18 10:44:25;;;;;;;10.03;9.43;;;16.50;99.90;;;;;;5021684;28;20476;-76
2022/02/18 10:46:56;;;;;;;8.73;8.03;;;16.60;99.90;;;;;;5016748;28;20243;-77
2022/02/18 10:49:26;;;;;;;8.93;8.33;;;16.60;99.90;;;;;;5026633;28;20206;-77
2022/02/18 10:51:54;;;;;;;8.10;7.50;;;16.60;99.90;;;;;;5015693;28;20251;-76
2022/02/18 10:54:30;;;;;;;7.40;6.90;;;16.70;99.90;;;;;;5026594;28;20199;-76
2022/02/18 10:57:15;;;;;;;7.07;6.47;;;16.80;99.90;;;;;;5011109;28;20762;-77
2022/02/18 10:59:42;;;;;;;7.50;7.00;;;16.70;99.90;;;;;;5017128;28;20706;-76
2022/02/18 11:02:09;;;;;;;5.67;5.30;;;16.70;99.90;;;;;;5025414;28;20206;-77
2022/02/18 11:04:37;;;;;;;7.60;6.87;;;16.80;99.90;;;;;;5026247;28;20771;-77
2022/02/18 11:07:15;;;;;;;8.77;7.97;;;17.00;99.90;;;;;;5028378;28;20273;-78
2022/02/18 11:09:43;;;;;;;7.80;7.10;;;17.20;99.90;;;;;;5024389;28;20820;-79
2022/02/18 11:12:11;;;;;;;9.43;8.53;;;17.20;99.90;;;;;;5025374;28;20680;-77
2022/02/18 11:14:41;;;;;;;8.73;8.03;;;17.00;99.90;;;;;;5017919;28;20211;-77
2022/02/18 11:17:10;;;;;;;8.73;8.10;;;16.80;99.90;;;;;;5017713;28;20223;-77
2022/02/18 11:19:40;;;;;;;10.80;10.10;;;16.70;99.90;;;;;;5013125;28;20568;-77
2022/02/18 11:22:07;;;;;;;9.17;8.57;;;16.60;99.90;;;;;;5009685;28;20270;-77
2022/02/18 11:24:35;;;;;;;10.03;9.23;;;16.60;99.90;;;;;;5018478;28;20196;-77
2022/02/18 11:27:03;;;;;;;9.10;8.30;;;16.80;99.90;;;;;;5058253;22;20237;-78
2022/02/18 11:29:31;;;;;;;8.90;8.20;;;17.00;99.90;;;;;;5055889;28;20253;-78
2022/02/18 11:32:01;;;;;;;8.60;8.00;;;17.30;99.90;;;;;;5033127;28;20199;-77
2022/02/18 11:35:10;;;;;;;9.07;8.27;;;17.60;99.90;;;;;;5041301;28;20203;-78
2022/02/18 11:37:58;;;;;;;9.57;8.73;;;17.80;99.90;;;;;;5004312;28;20233;-77
2022/02/18 11:40:41;;;;;;;9.53;8.87;;;17.80;99.90;;;;;;5019740;28;20196;-78
2022/02/18 11:43:27;;;;;;;9.30;8.60;;;17.70;99.90;;;;;;5023937;28;20214;-78
2022/02/18 11:45:56;;;;;;;6.70;6.10;;;17.60;99.90;;;;;;5018297;28;20251;-77
2022/02/18 11:48:43;;;;;;;7.37;2.33;;;17.60;99.90;;;;;;5024911;28;20273;-77
2022/02/18 11:51:12;;;;;;;4.03;2.50;;;17.40;99.90;;;;;;5010120;28;20205;-77
2022/02/18 11:53:42;;;;;;;5.00;3.77;;;17.40;99.90;;;;;;5004500;28;20196;-78
2022/02/18 11:56:09;;;;;;;6.63;2.77;;;17.40;99.90;;;;;;5013597;28;20248;-77
2022/02/18 11:58:53;;;;;;;6.97;3.17;;;17.30;99.90;;;;;;5021329;28;20641;-80
2022/02/18 12:01:20;;;;;;;6.23;3.20;;;17.20;99.90;;;;;;5020646;28;20622;-81
2022/02/18 12:04:16;;;;;;;6.03;3.80;;;17.20;99.90;;;;;;5024911;28;20203;-81
2022/02/18 12:06:43;;;;;;;6.13;3.83;;;17.30;99.90;;;;;;5013667;28;20243;-81
2022/02/18 12:09:13;;;;;;;4.93;2.23;;;17.30;99.90;;;;;;5019338;28;20232;-80
2022/02/18 12:11:44;;;;;;;3.70;2.70;;;17.20;99.90;;;;;;5021506;28;20959;-80
2022/02/18 12:14:13;;;;;;;12.37;2.40;;;17.20;99.90;;;;;;5022254;28;20216;-79
2022/02/18 12:16:41;;;;;;;9.67;2.60;;;17.10;99.90;;;;;;5020756;28;20219;-80
2022/02/18 12:19:13;;;;;;;3.83;2.10;;;17.10;99.90;;;;;;5013779;28;20192;-80
2022/02/18 12:22:07;;;;;;;5.37;2.50;;;17.10;99.90;;;;;;5021834;28;20200;-80
2022/02/18 12:24:43;;;;;;;4.57;2.13;;;17.10;99.90;;;;;;4993539;28;20212;-80
2022/02/18 12:27:34;;;;;;;4.23;2.50;;;17.20;99.90;;;;;;5029313;28;20231;-80
2022/02/18 12:30:32;;;;;;;6.33;2.17;;;17.40;99.90;;;;;;5016322;28;20224;-80
2022/02/18 12:32:59;;;;;;;9.37;8.20;;;17.60;99.90;;;;;;5026084;28;20228;-81
2022/02/18 12:35:31;;;;;;;7.40;5.63;;;17.70;99.90;;;;;;5018229;28;20938;-80
2022/02/18 12:38:00;;;;;;;9.30;8.23;;;17.60;99.90;;;;;;5025284;28;20319;-81
2022/02/18 12:40:32;;;;;;;7.37;3.70;;;17.60;99.90;;;;;;5011007;28;20211;-81
2022/02/18 12:43:00;;;;;;;6.33;5.73;;;17.50;99.90;;;;;;5025502;28;20223;-81
2022/02/18 12:45:37;;;;;;;8.93;7.93;;;17.40;99.90;;;;;;5020826;28;20273;-80
2022/02/18 12:48:05;;;;;;;3.63;3.10;;;17.30;99.90;;;;;;5023291;28;20195;-81
2022/02/18 12:50:34;;;;;;;5.43;4.93;;;17.30;99.90;;;;;;5011957;28;20192;-78
2022/02/18 12:53:02;;;;;;;7.70;6.90;;;17.30;99.90;;;;;;5021175;28;20207;-80
2022/02/18 12:55:33;;;;;;;8.17;6.80;;;17.30;99.90;;;;;;5007614;28;20246;-80
2022/02/18 12:58:00;;;;;;;4.80;2.80;;;17.30;99.90;;;;;;5012377;28;20585;-80
2022/02/18 13:00:28;;;;;;;5.33;4.97;;;17.40;99.90;;;;;;5016522;28;20202;-81